createdAt,value
2022-11-29T00:02:31.644Z,4.90
2022-11-29T00:05:18.098Z,4.60
2022-11-29T00:08:04.614Z,4.85
2022-11-29T00:10:51.701Z,4.57
2022-11-29T00:13:38.297Z,5.70
2022-11-29T00:16:26.220Z,4.80
2022-11-29T00:19:14.164Z,5.15
2022-11-29T00:22:01.722Z,5.13
2022-11-29T00:24:48.186Z,4.45
2022-11-29T00:27:34.720Z,4.90
2022-11-29T00:30:22.154Z,4.38
2022-11-29T00:33:10.178Z,4.10
2022-11-29T00:35:56.704Z,4.70
2022-11-29T00:38:44.057Z,5.07
2022-11-29T00:41:30.471Z,5.15
2022-11-29T00:44:20.494Z,5.03
2022-11-29T00:47:07.773Z,4.85
2022-11-29T00:49:55.697Z,4.60
2022-11-29T00:52:42.365Z,4.88
2022-11-29T00:55:29.091Z,4.75
2022-11-29T00:58:15.904Z,5.30
2022-11-29T01:01:02.428Z,4.68
2022-11-29T01:03:49.415Z,4.40
2022-11-29T01:06:38.305Z,4.43
2022-11-29T01:09:24.933Z,4.47
2022-11-29T01:12:11.556Z,4.82
2022-11-29T01:14:59.721Z,4.65
2022-11-29T01:17:46.689Z,4.72
2022-11-29T01:20:33.166Z,5.05
2022-11-29T01:23:21.350Z,5.20
2022-11-29T01:26:14.189Z,4.20
2022-11-29T01:29:00.947Z,5.43
2022-11-29T01:31:47.650Z,5.32
2022-11-29T01:34:34.348Z,5.20
2022-11-29T01:37:20.899Z,4.95
2022-11-29T01:40:10.413Z,5.90
2022-11-29T01:42:57.001Z,5.63
2022-11-29T01:45:45.466Z,5.22
2022-11-29T01:48:34.505Z,5.18
2022-11-29T01:51:21.168Z,5.53
2022-11-29T01:54:10.504Z,5.82
2022-11-29T01:57:00.533Z,5.90
2022-11-29T01:59:52.283Z,6.07
2022-11-29T02:02:45.119Z,5.38
2022-11-29T02:05:33.566Z,6.00
2022-11-29T02:08:28.249Z,6.35
2022-11-29T02:11:50.918Z,6.07
2022-11-29T02:14:57.623Z,5.68
2022-11-29T02:18:02.521Z,5.40
2022-11-29T02:21:27.855Z,6.20
2022-11-29T02:24:55.356Z,6.10
2022-11-29T02:28:38.753Z,6.00
2022-11-29T02:32:01.225Z,6.20
2022-11-29T02:35:12.057Z,6.28
2022-11-29T02:38:19.479Z,6.93
2022-11-29T02:41:28.692Z,6.07
2022-11-29T02:45:00.043Z,6.25
2022-11-29T02:48:08.402Z,6.20
2022-11-29T02:51:06.554Z,6.30
2022-11-29T02:54:03.886Z,6.65
2022-11-29T02:56:57.709Z,7.00
2022-11-29T02:59:58.084Z,7.00
2022-11-29T03:02:58.458Z,6.90
2022-11-29T03:05:54.539Z,6.40
2022-11-29T03:08:52.800Z,5.78
2022-11-29T03:11:49.306Z,5.97
2022-11-29T03:14:54.545Z,6.43
2022-11-29T03:17:57.664Z,5.55
2022-11-29T03:21:05.039Z,5.60
2022-11-29T03:23:59.710Z,5.60
2022-11-29T03:26:52.828Z,5.63
2022-11-29T03:29:50.549Z,5.90
2022-11-29T03:32:51.015Z,5.72
2022-11-29T03:35:48.621Z,5.40
2022-11-29T03:38:42.422Z,5.32
2022-11-29T03:41:40.280Z,6.07
2022-11-29T03:44:35.594Z,5.77
2022-11-29T03:47:34.621Z,5.80
2022-11-29T03:50:27.939Z,5.65
2022-11-29T03:53:23.892Z,5.95
2022-11-29T03:56:31.308Z,6.43
2022-11-29T03:59:36.527Z,6.07
2022-11-29T04:03:20.833Z,6.87
2022-11-29T04:06:33.513Z,6.25
2022-11-29T04:09:55.827Z,6.45
2022-11-29T04:13:24.514Z,6.63
2022-11-29T04:16:54.417Z,6.60
2022-11-29T04:20:11.401Z,5.43
2022-11-29T04:23:46.315Z,5.72
2022-11-29T04:27:23.365Z,6.15
2022-11-29T04:30:22.306Z,6.07
2022-11-29T04:33:58.063Z,5.72
2022-11-29T04:37:14.160Z,6.60
2022-11-29T04:40:32.916Z,5.68
2022-11-29T04:43:54.052Z,6.22
2022-11-29T04:47:20.661Z,6.45
2022-11-29T04:50:26.667Z,6.05
2022-11-29T04:53:47.836Z,6.50
2022-11-29T04:56:44.054Z,7.15
2022-11-29T04:59:44.346Z,6.95
2022-11-29T05:02:41.942Z,6.70
2022-11-29T05:05:42.723Z,6.50
2022-11-29T05:08:45.795Z,6.93
2022-11-29T05:11:50.500Z,6.60
2022-11-29T05:15:00.746Z,6.07
2022-11-29T05:18:06.186Z,7.07
2022-11-29T05:21:04.232Z,6.43
2022-11-29T05:24:11.515Z,5.32
2022-11-29T05:27:11.830Z,6.95
2022-11-29T05:30:07.011Z,6.60
2022-11-29T05:33:11.610Z,6.47
2022-11-29T05:36:14.549Z,5.53
2022-11-29T05:39:22.562Z,6.45
2022-11-29T05:43:01.741Z,6.32
2022-11-29T05:45:58.400Z,6.80
2022-11-29T05:48:59.134Z,5.50
2022-11-29T05:51:58.121Z,5.55
2022-11-29T05:55:00.341Z,6.83
2022-11-29T05:57:58.715Z,6.43
2022-11-29T06:00:53.578Z,6.65
2022-11-29T06:03:54.411Z,6.68
2022-11-29T06:06:50.449Z,5.93
2022-11-29T06:09:48.189Z,6.60
2022-11-29T06:12:37.252Z,5.72
2022-11-29T06:15:58.699Z,5.60
2022-11-29T06:19:26.866Z,5.97
2022-11-29T06:22:50.686Z,12.13
2022-11-29T06:26:00.685Z,7.67
2022-11-29T06:29:06.568Z,7.10
2022-11-29T06:32:04.220Z,6.82
2022-11-29T06:39:16.571Z,5.57
2022-11-29T06:42:06.458Z,6.32
2022-11-29T06:44:54.094Z,6.18
2022-11-29T06:48:05.402Z,6.30
2022-11-29T06:51:04.577Z,6.03
2022-11-29T06:54:01.057Z,6.20
2022-11-29T06:57:00.259Z,5.72
2022-11-29T07:00:04.777Z,6.20
2022-11-29T07:03:15.582Z,5.13
2022-11-29T07:06:16.331Z,6.63
2022-11-29T07:09:13.165Z,5.65
2022-11-29T07:12:02.464Z,5.38
2022-11-29T07:14:50.280Z,5.88
2022-11-29T07:17:51.363Z,5.83
2022-11-29T07:20:50.950Z,5.38
2022-11-29T07:23:50.906Z,5.47
2022-11-29T07:26:47.276Z,5.10
2022-11-29T07:29:44.817Z,6.05
2022-11-29T07:32:50.802Z,4.90
2022-11-29T07:35:48.426Z,5.68
2022-11-29T07:38:51.310Z,5.72
2022-11-29T07:41:52.963Z,5.05
2022-11-29T07:44:55.987Z,4.80
2022-11-29T07:47:42.669Z,6.00
2022-11-29T07:50:31.356Z,5.35
2022-11-29T07:53:20.015Z,5.75
2022-11-29T07:56:06.927Z,4.70
2022-11-29T07:58:54.059Z,4.90
2022-11-29T08:01:42.783Z,5.45
2022-11-29T08:04:29.980Z,5.28
2022-11-29T08:07:16.467Z,5.35
2022-11-29T08:10:03.487Z,5.75
2022-11-29T08:12:52.701Z,5.40
2022-11-29T08:15:45.916Z,5.75
2022-11-29T08:18:34.041Z,4.93
2022-11-29T08:21:20.660Z,6.10
2022-11-29T08:24:07.787Z,5.45
2022-11-29T08:26:54.610Z,4.78
2022-11-29T08:29:41.481Z,5.55
2022-11-29T08:32:28.733Z,4.70
2022-11-29T08:35:17.457Z,4.13
2022-11-29T08:38:04.989Z,5.35
2022-11-29T08:40:51.701Z,4.50
2022-11-29T08:43:38.519Z,4.97
2022-11-29T08:46:45.713Z,5.25
2022-11-29T08:49:32.355Z,5.40
2022-11-29T08:52:38.213Z,5.65
2022-11-29T08:55:28.676Z,5.50
2022-11-29T08:58:16.932Z,6.03
2022-11-29T09:01:03.495Z,5.13
2022-11-29T09:04:03.525Z,5.60
2022-11-29T09:06:50.746Z,5.93
2022-11-29T09:09:38.858Z,6.18
2022-11-29T09:12:25.686Z,6.70
2022-11-29T09:15:13.006Z,5.75
2022-11-29T09:18:00.034Z,6.45
2022-11-29T09:20:46.877Z,6.97
2022-11-29T09:23:33.899Z,5.75
2022-11-29T09:26:22.334Z,6.75
2022-11-29T09:29:11.732Z,7.38
2022-11-29T09:31:59.023Z,7.53
2022-11-29T09:34:46.095Z,7.07
2022-11-29T09:37:33.315Z,6.20
2022-11-29T09:40:26.586Z,6.85
2022-11-29T09:43:27.182Z,6.28
2022-11-29T09:46:26.180Z,6.30
2022-11-29T09:49:52.105Z,6.38
2022-11-29T09:52:53.445Z,5.75
2022-11-29T09:55:57.361Z,7.00
2022-11-29T09:58:52.879Z,7.13
2022-11-29T10:01:45.122Z,6.43
2022-11-29T10:04:41.119Z,6.60
2022-11-29T10:07:35.890Z,7.43
2022-11-29T10:10:30.490Z,6.43
2022-11-29T10:13:23.310Z,5.88
2022-11-29T10:16:23.271Z,6.70
2022-11-29T10:19:22.682Z,6.40
2022-11-29T10:22:21.860Z,5.88
2022-11-29T10:25:18.918Z,6.40
2022-11-29T10:28:12.675Z,6.30
2022-11-29T10:31:09.574Z,5.75
2022-11-29T10:34:02.001Z,5.15
2022-11-29T10:36:52.117Z,4.53
2022-11-29T10:39:44.787Z,5.70
2022-11-29T10:42:53.072Z,5.63
2022-11-29T10:45:50.373Z,6.00
2022-11-29T10:48:37.586Z,6.07
2022-11-29T10:51:26.237Z,7.60
2022-11-29T10:54:32.788Z,6.77
2022-11-29T10:57:22.173Z,6.38
2022-11-29T11:00:13.317Z,6.60
2022-11-29T11:03:25.192Z,7.27
2022-11-29T11:06:17.154Z,5.90
2022-11-29T11:09:21.859Z,6.85
2022-11-29T11:12:20.968Z,6.07
2022-11-29T11:15:29.409Z,5.03
2022-11-29T11:18:57.642Z,4.95
2022-11-29T11:21:44.357Z,5.68
2022-11-29T11:24:36.929Z,5.50
2022-11-29T11:27:32.650Z,6.28
2022-11-29T11:30:24.437Z,6.03
2022-11-29T11:33:21.899Z,7.23
2022-11-29T11:36:14.237Z,6.63
2022-11-29T11:39:21.224Z,6.95
2022-11-29T11:42:31.521Z,6.18
2022-11-29T11:45:32.769Z,5.28
2022-11-29T11:48:20.460Z,6.50
2022-11-29T11:51:22.047Z,6.22
2022-11-29T11:54:16.179Z,5.28
2022-11-29T11:57:02.835Z,4.97
2022-11-29T11:59:52.407Z,5.85
2022-11-29T12:02:41.489Z,6.13
2022-11-29T12:05:28.543Z,4.93
2022-11-29T12:08:16.564Z,5.45
2022-11-29T12:11:08.475Z,5.25
2022-11-29T12:13:59.073Z,6.10
2022-11-29T12:16:51.131Z,5.60
2022-11-29T12:19:50.485Z,6.18
2022-11-29T12:22:52.029Z,5.43
2022-11-29T12:25:48.316Z,5.85
2022-11-29T12:28:39.880Z,6.00
2022-11-29T12:31:55.139Z,5.60
2022-11-29T12:35:04.558Z,5.25
2022-11-29T12:38:02.889Z,5.38
2022-11-29T12:41:07.795Z,5.28
2022-11-29T12:44:08.529Z,5.05
2022-11-29T12:47:34.607Z,5.40
2022-11-29T12:50:31.623Z,5.70
2022-11-29T12:53:40.652Z,6.13
2022-11-29T12:56:35.289Z,6.22
2022-11-29T12:59:39.218Z,5.85
2022-11-29T13:02:43.400Z,6.10
2022-11-29T13:05:52.345Z,6.65
2022-11-29T13:09:16.928Z,5.40
2022-11-29T13:12:13.129Z,6.43
2022-11-29T13:15:07.855Z,6.53
2022-11-29T13:18:01.688Z,6.00
2022-11-29T13:21:00.029Z,5.75
2022-11-29T13:24:08.483Z,6.32
2022-11-29T13:26:57.766Z,5.80
2022-11-29T13:29:44.955Z,6.70
2022-11-29T13:32:37.357Z,6.30
2022-11-29T13:35:35.594Z,6.50
2022-11-29T13:38:30.914Z,5.85
2022-11-29T13:41:28.714Z,6.07
2022-11-29T13:44:28.768Z,5.90
2022-11-29T13:47:18.589Z,6.32
2022-11-29T13:50:08.033Z,6.20
2022-11-29T13:53:07.141Z,7.50
2022-11-29T13:56:01.616Z,7.35
2022-11-29T13:58:54.766Z,6.95
2022-11-29T14:01:50.955Z,6.97
2022-11-29T14:04:41.434Z,7.35
2022-11-29T14:07:28.233Z,6.60
2022-11-29T14:10:29.222Z,7.32
2022-11-29T14:13:17.465Z,6.60
2022-11-29T14:16:07.964Z,6.88
2022-11-29T14:19:30.098Z,6.93
2022-11-29T14:22:23.221Z,7.97
2022-11-29T14:25:50.557Z,6.28
2022-11-29T14:28:35.993Z,6.60
2022-11-29T14:31:57.677Z,6.95
2022-11-29T14:34:52.575Z,7.97
2022-11-29T14:37:56.520Z,7.28
2022-11-29T14:40:57.840Z,6.60
2022-11-29T14:43:44.745Z,6.43
2022-11-29T14:46:34.001Z,8.63
2022-11-29T14:49:25.655Z,7.22
2022-11-29T14:52:26.306Z,7.47
2022-11-29T14:55:36.321Z,7.28
2022-11-29T14:58:24.583Z,7.38
2022-11-29T15:01:12.014Z,6.80
2022-11-29T15:03:58.867Z,7.13
2022-11-29T15:06:51.613Z,7.07
2022-11-29T15:09:42.543Z,8.30
2022-11-29T15:12:36.203Z,6.75
2022-11-29T15:16:08.706Z,7.55
2022-11-29T15:19:31.217Z,7.35
2022-11-29T15:22:21.388Z,6.70
2022-11-29T15:25:14.665Z,7.72
2022-11-29T15:28:03.554Z,6.65
2022-11-29T15:31:04.796Z,6.95
2022-11-29T15:33:52.017Z,7.15
2022-11-29T15:36:44.772Z,6.47
2022-11-29T15:39:35.029Z,7.03
2022-11-29T15:42:21.556Z,6.95
2022-11-29T15:45:33.915Z,7.38
2022-11-29T15:48:24.772Z,7.18
2022-11-29T15:51:23.126Z,6.50
2022-11-29T15:54:18.281Z,5.97
2022-11-29T15:57:14.440Z,7.35
2022-11-29T16:00:06.025Z,7.53
2022-11-29T16:02:58.110Z,6.93
2022-11-29T16:05:53.320Z,6.88
2022-11-29T16:08:43.238Z,6.07
2022-11-29T16:11:32.630Z,7.47
2022-11-29T16:14:24.974Z,6.55
2022-11-29T16:17:12.360Z,6.45
2022-11-29T16:20:24.142Z,6.70
2022-11-29T16:23:14.811Z,6.50
2022-11-29T16:26:15.810Z,6.50
2022-11-29T16:29:03.429Z,7.38
2022-11-29T16:31:50.154Z,6.57
2022-11-29T16:34:37.083Z,6.57
2022-11-29T16:37:27.153Z,6.95
2022-11-29T16:40:25.389Z,6.25
2022-11-29T16:43:23.985Z,6.75
2022-11-29T16:46:39.029Z,7.03
2022-11-29T16:49:36.181Z,6.97
2022-11-29T16:52:29.269Z,7.72
2022-11-29T16:55:17.017Z,7.13
2022-11-29T16:58:05.510Z,7.60
2022-11-29T17:00:52.421Z,8.70
2022-11-29T17:03:38.920Z,8.00
2022-11-29T17:06:28.015Z,8.77
2022-11-29T17:09:24.022Z,7.90
2022-11-29T17:12:14.358Z,8.48
2022-11-29T17:15:02.206Z,7.85
2022-11-29T17:17:48.977Z,8.40
2022-11-29T17:20:35.497Z,8.50
2022-11-29T17:23:22.474Z,9.00
2022-11-29T17:26:09.972Z,8.52
2022-11-29T17:28:56.589Z,7.43
2022-11-29T17:31:47.261Z,7.78
2022-11-29T17:34:34.561Z,7.38
2022-11-29T17:37:21.310Z,7.53
2022-11-29T17:40:09.715Z,7.90
2022-11-29T17:42:56.560Z,7.88
2022-11-29T17:45:43.446Z,8.38
2022-11-29T17:48:33.612Z,7.65
2022-11-29T17:51:50.633Z,7.55
2022-11-29T17:54:32.818Z,7.75
2022-11-29T17:57:19.795Z,6.75
2022-11-29T18:00:08.820Z,7.30
2022-11-29T18:02:55.589Z,7.60
2022-11-29T18:05:43.415Z,7.32
2022-11-29T18:08:30.193Z,7.18
2022-11-29T18:11:19.743Z,8.02
2022-11-29T18:14:06.524Z,6.45
2022-11-29T18:16:53.453Z,6.95
2022-11-29T18:19:39.996Z,7.20
2022-11-29T18:22:28.310Z,7.80
2022-11-29T18:25:37.620Z,7.38
2022-11-29T18:28:21.994Z,6.57
2022-11-29T18:31:10.867Z,7.00
2022-11-29T18:33:59.926Z,6.90
2022-11-29T18:36:49.739Z,7.53
2022-11-29T18:39:37.747Z,7.38
2022-11-29T18:42:24.401Z,7.13
2022-11-29T18:45:12.015Z,7.65
2022-11-29T18:48:00.096Z,7.10
2022-11-29T18:50:46.985Z,7.20
2022-11-29T18:53:35.185Z,6.88
2022-11-29T18:56:26.277Z,6.60
2022-11-29T18:59:17.190Z,7.53
2022-11-29T19:02:04.287Z,7.85
2022-11-29T19:04:51.038Z,7.28
2022-11-29T19:07:37.798Z,7.05
2022-11-29T19:10:24.492Z,7.10
2022-11-29T19:13:12.492Z,7.57
2022-11-29T19:15:58.970Z,6.90
2022-11-29T19:18:46.764Z,7.53
2022-11-29T19:21:34.340Z,7.72
2022-11-29T19:24:21.039Z,6.87
2022-11-29T19:27:07.636Z,7.40
2022-11-29T19:29:55.796Z,8.23
2022-11-29T19:32:43.721Z,6.70
2022-11-29T19:35:30.408Z,7.82
2022-11-29T19:38:17.225Z,7.75
2022-11-29T19:41:09.848Z,8.67
2022-11-29T19:43:58.268Z,9.27
2022-11-29T19:46:48.494Z,8.97
2022-11-29T19:49:36.236Z,7.85
2022-11-29T19:52:22.915Z,9.47
2022-11-29T19:55:10.671Z,8.23
2022-11-29T19:57:57.277Z,9.00
2022-11-29T20:00:43.830Z,10.30
2022-11-29T20:03:32.186Z,9.57
2022-11-29T20:06:20.213Z,9.57
2022-11-29T20:09:07.433Z,10.07
2022-11-29T20:11:54.031Z,9.07
2022-11-29T20:14:40.630Z,10.02
2022-11-29T20:17:27.216Z,8.77
2022-11-29T20:20:15.967Z,9.85
2022-11-29T20:23:02.493Z,10.05
2022-11-29T20:25:49.698Z,10.17
2022-11-29T20:28:37.243Z,10.50
2022-11-29T20:31:24.489Z,9.60
2022-11-29T20:34:14.211Z,10.60
2022-11-29T20:37:32.739Z,11.25
2022-11-29T20:40:28.739Z,10.60
2022-11-29T20:43:20.992Z,10.07
2022-11-29T20:46:08.751Z,10.30
2022-11-29T20:49:00.476Z,10.23
2022-11-29T20:52:02.502Z,11.25
2022-11-29T20:54:50.543Z,10.85
2022-11-29T20:57:38.198Z,11.43
2022-11-29T21:00:25.080Z,10.75
2022-11-29T21:03:14.448Z,10.45
2022-11-29T21:06:05.094Z,11.23
2022-11-29T21:08:52.085Z,11.18
2022-11-29T21:11:40.964Z,10.40
2022-11-29T21:14:28.491Z,12.45
2022-11-29T21:17:16.005Z,11.40
2022-11-29T21:20:03.680Z,12.73
2022-11-29T21:23:01.715Z,12.88
2022-11-29T21:25:57.363Z,12.23
2022-11-29T21:28:58.796Z,12.77
2022-11-29T21:31:48.610Z,11.95
2022-11-29T21:34:35.452Z,12.45
2022-11-29T21:37:27.308Z,12.45
2022-11-29T21:40:15.666Z,12.43
2022-11-29T21:43:02.103Z,11.93
2022-11-29T21:45:50.120Z,13.20
2022-11-29T21:48:37.737Z,12.23
2022-11-29T21:51:24.628Z,13.25
2022-11-29T21:54:11.369Z,12.07
2022-11-29T21:56:57.737Z,12.75
2022-11-29T21:59:44.206Z,12.52
2022-11-29T22:02:32.240Z,12.35
2022-11-29T22:05:18.871Z,11.70
2022-11-29T22:08:06.723Z,12.68
2022-11-29T22:11:02.748Z,13.13
2022-11-29T22:14:07.032Z,11.45
2022-11-29T22:16:56.465Z,12.38
2022-11-29T22:19:44.630Z,13.43
2022-11-29T22:22:31.468Z,11.00
2022-11-29T22:25:17.941Z,11.70
2022-11-29T22:28:04.811Z,12.02
2022-11-29T22:30:51.227Z,13.43
2022-11-29T22:33:39.544Z,13.05
2022-11-29T22:36:27.901Z,12.95
2022-11-29T22:39:15.361Z,12.38
2022-11-29T22:42:02.155Z,12.80
2022-11-29T22:44:48.831Z,13.30
2022-11-29T22:47:35.617Z,13.15
2022-11-29T22:50:22.349Z,12.75
2022-11-29T22:53:10.376Z,13.27
2022-11-29T22:55:59.561Z,13.15
2022-11-29T22:58:46.984Z,12.85
2022-11-29T23:01:36.531Z,13.23
2022-11-29T23:04:22.929Z,13.02
2022-11-29T23:07:09.376Z,13.23
2022-11-29T23:09:57.273Z,13.30
2022-11-29T23:12:44.481Z,12.80
2022-11-29T23:15:30.979Z,12.68
2022-11-29T23:18:17.537Z,12.77
2022-11-29T23:21:06.460Z,11.55
2022-11-29T23:23:56.539Z,10.60
2022-11-29T23:26:48.069Z,11.50
2022-11-29T23:29:34.311Z,10.07
2022-11-29T23:32:20.887Z,11.37
2022-11-29T23:35:08.124Z,10.73
2022-11-29T23:37:54.773Z,11.00
2022-11-29T23:40:41.783Z,11.23
2022-11-29T23:43:32.222Z,12.70
2022-11-29T23:46:22.770Z,9.73
2022-11-29T23:49:09.285Z,12.07
2022-11-29T23:51:55.956Z,12.47
2022-11-29T23:54:42.809Z,11.93
2022-11-29T23:57:30.740Z,11.00
